Pagrindinis puslapis
METAR-TAF:

METAR-TAF

Oro uostai :

Luangnamta, Laosas

platuma: 20-57-38N, ilguma: 101-24-09E, Aukštis: 600 m

Dabartinis oras

Ataskaita buvo paskelbta 11 valandos ir 2 minutes, ne 12:00 UTC
Vėjas 2 kt iš Pietų
Temperatūra 33°C
Drėgmė 32%
Slėgis 1008 hPa
Matomumas: 3000 m
Mažai debesys ne aukštis 4000 ft
dūmai

METAR: VLLN 301200Z 18002KT 3000 FU FEW040 33/14 Q1008 NOSIG

Laikas: 04:32 (23:02 UTC)

Prognozė

Ataskaita buvo paskelbta 6 valandos ir 2 minutes, ne 17:00 UTC
Prognozė galioja nuo 30 metu 18 UTC su 31 metu 18 UTC
Vėjas 6 kt iš Pietvakarių
Matomumas: 2000 m
Mažai debesys ne aukštis 2000 ft
Išsisklaidę debesys ne aukštis 10000 ft
dūmai

TAF: VLLN 301700Z 3018/3118 22006KT 2000 FU FEW020 SCT100

Orai ataskaitas ir orų prognozės (METAR, TAF).

turimą stotys yra geltonos ir raudonos taškus žemėlapyje.

Perkelti pele per norėdami pamatyti stoties vardą.

Tada spustelėkite, norėdami matyti oro stebėjimo ir prognozės.

Norėdami pakeisti žemėlapį: spustelėkite ant žalios mygtukų su juodo kryžiaus žemyn,; žalią mygtuką su brūkšneliu, jei norite nutolinti; arba žalių rodyklių gretimoms žemėlapius.


METAR-TAF: